createdAt,value
2018-03-06T06:52:21.450Z,22.60
2018-03-06T06:54:51.828Z,22.20
2018-03-06T06:57:21.089Z,22.10
2018-03-06T06:59:49.021Z,19.80
2018-03-06T07:02:25.002Z,18.60
2018-03-06T07:04:53.409Z,17.70
2018-03-06T07:07:21.550Z,17.30
2018-03-06T07:09:49.750Z,19.10
2018-03-06T07:12:18.053Z,20.50
2018-03-06T07:14:46.751Z,21.30
2018-03-06T07:17:15.163Z,21.80
2018-03-06T07:19:43.666Z,22.30
2018-03-06T07:22:11.885Z,22.50
2018-03-06T07:24:40.194Z,22.70
2018-03-06T07:27:08.450Z,22.80
2018-03-06T07:29:37.136Z,23.00
2018-03-06T07:32:13.237Z,23.00
2018-03-06T07:34:41.622Z,23.00
2018-03-06T07:37:10.286Z,23.00
2018-03-06T07:39:38.677Z,23.10
2018-03-06T07:42:06.943Z,23.10
2018-03-06T07:44:36.115Z,23.10
2018-03-06T07:47:04.409Z,23.20
2018-03-06T07:49:32.679Z,23.20
2018-03-06T07:52:02.189Z,23.20
2018-03-06T07:54:30.329Z,23.20
2018-03-06T07:56:58.812Z,23.30
2018-03-06T07:59:27.588Z,23.30
2018-03-06T08:01:55.978Z,23.30
2018-03-06T08:04:24.330Z,23.30
2018-03-06T08:06:52.743Z,23.30
2018-03-06T08:09:21.567Z,23.30
2018-03-06T08:11:49.853Z,23.30
2018-03-06T08:14:18.435Z,23.30
2018-03-06T08:16:46.668Z,23.30
2018-03-06T08:19:15.775Z,23.30
2018-03-06T08:21:43.946Z,23.30
2018-03-06T08:24:11.990Z,23.30
2018-03-06T08:26:41.120Z,23.40
2018-03-06T08:29:09.366Z,23.40
2018-03-06T08:31:38.084Z,23.40
2018-03-06T08:34:13.559Z,23.40
2018-03-06T08:36:41.635Z,23.50
2018-03-06T08:39:10.526Z,23.70
2018-03-06T08:41:38.954Z,23.70
2018-03-06T08:44:07.161Z,23.30
2018-03-06T08:46:35.199Z,23.00
2018-03-06T08:49:03.864Z,22.80
2018-03-06T08:51:32.759Z,22.90
2018-03-06T08:54:01.386Z,22.90
2018-03-06T08:56:29.567Z,22.90
2018-03-06T08:58:57.934Z,22.90
2018-03-06T09:01:26.042Z,22.80
2018-03-06T09:03:54.078Z,22.80
2018-03-06T09:06:22.341Z,23.00
2018-03-06T09:08:50.466Z,23.00
2018-03-06T09:11:18.825Z,23.10
2018-03-06T09:13:47.506Z,23.20
2018-03-06T09:16:15.972Z,23.20
2018-03-06T09:18:43.857Z,23.30
2018-03-06T09:21:12.208Z,23.40
2018-03-06T09:23:40.613Z,23.40
2018-03-06T09:26:08.636Z,23.50
2018-03-06T09:28:37.183Z,23.50
2018-03-06T09:31:05.337Z,23.70
2018-03-06T09:33:33.658Z,23.70
2018-03-06T09:36:12.326Z,23.70
2018-03-06T09:38:40.427Z,23.80
2018-03-06T09:41:08.752Z,23.70
2018-03-06T09:43:36.741Z,23.60
2018-03-06T09:46:04.806Z,23.60
2018-03-06T09:48:38.894Z,23.50
2018-03-06T09:51:07.150Z,23.50
2018-03-06T09:53:35.587Z,23.50
2018-03-06T09:56:03.764Z,23.50
2018-03-06T09:58:31.773Z,23.70
2018-03-06T10:01:00.101Z,23.60
2018-03-06T10:03:28.265Z,23.60
2018-03-06T10:05:56.487Z,23.60
2018-03-06T10:08:24.799Z,23.60
2018-03-06T10:10:53.038Z,23.60
2018-03-06T10:13:21.474Z,23.60
2018-03-06T10:15:49.938Z,23.60
2018-03-06T10:18:24.989Z,23.60
2018-03-06T10:20:54.312Z,23.60
2018-03-06T10:23:22.177Z,23.70
2018-03-06T10:25:52.693Z,23.70
2018-03-06T10:28:20.916Z,23.70
2018-03-06T10:30:49.076Z,23.70
2018-03-06T10:33:17.182Z,23.70
2018-03-06T10:35:45.240Z,23.60
2018-03-06T10:38:13.503Z,23.60
2018-03-06T10:40:41.903Z,23.60
2018-03-06T10:43:11.673Z,23.50
2018-03-06T10:45:39.633Z,23.60
2018-03-06T10:48:08.070Z,23.70
2018-03-06T10:50:37.232Z,23.70
2018-03-06T10:53:05.393Z,23.70
2018-03-06T10:55:33.515Z,23.70
2018-03-06T10:58:01.769Z,23.70
2018-03-06T11:00:30.425Z,23.70
2018-03-06T11:02:58.673Z,23.60
2018-03-06T11:05:26.964Z,23.70
2018-03-06T11:07:55.303Z,23.60
2018-03-06T11:10:24.422Z,23.50
2018-03-06T11:12:52.549Z,23.50
2018-03-06T11:15:21.944Z,23.50
2018-03-06T11:17:50.254Z,23.50
2018-03-06T11:20:18.455Z,23.50
2018-03-06T11:22:46.499Z,23.40
2018-03-06T11:25:14.549Z,23.40
2018-03-06T11:27:42.906Z,23.40
2018-03-06T11:30:10.958Z,23.40
2018-03-06T11:32:39.587Z,23.50
2018-03-06T11:35:07.625Z,23.40
2018-03-06T11:37:35.927Z,23.40
2018-03-06T11:40:12.690Z,23.40
2018-03-06T11:42:41.705Z,23.40
2018-03-06T11:45:10.097Z,23.40
2018-03-06T11:47:38.325Z,23.40
2018-03-06T11:50:07.478Z,23.40
2018-03-06T11:52:36.445Z,23.40
2018-03-06T11:55:06.001Z,23.40
2018-03-06T11:57:34.288Z,23.40
2018-03-06T12:00:02.341Z,23.40
2018-03-06T12:02:30.748Z,23.40
2018-03-06T12:04:59.529Z,23.40
2018-03-06T12:07:28.628Z,23.40
2018-03-06T12:09:57.635Z,23.40
2018-03-06T12:12:25.948Z,23.40
2018-03-06T12:14:53.971Z,23.40
2018-03-06T12:17:22.219Z,23.50
2018-03-06T12:19:50.519Z,23.70
2018-03-06T12:22:19.021Z,23.80
2018-03-06T12:24:47.146Z,23.90
2018-03-06T12:27:15.805Z,24.00
2018-03-06T12:29:43.805Z,24.00
2018-03-06T12:32:12.137Z,24.10
2018-03-06T12:34:40.428Z,24.20
2018-03-06T12:37:08.679Z,24.20
2018-03-06T12:39:36.760Z,24.20
2018-03-06T12:42:16.637Z,24.00
2018-03-06T12:44:44.888Z,24.00
2018-03-06T12:47:22.503Z,24.00
2018-03-06T12:49:50.885Z,24.00
2018-03-06T12:52:19.523Z,24.10
2018-03-06T12:54:47.664Z,24.10
2018-03-06T12:57:15.854Z,24.10
2018-03-06T12:59:43.882Z,24.00
2018-03-06T13:02:12.151Z,24.00
2018-03-06T13:04:40.722Z,24.10
2018-03-06T13:07:10.583Z,24.20
2018-03-06T13:09:39.041Z,24.10
2018-03-06T13:12:08.227Z,24.20
2018-03-06T13:14:36.498Z,24.20
2018-03-06T13:17:05.559Z,24.20
2018-03-06T13:19:34.962Z,24.20
2018-03-06T13:22:03.260Z,24.30
2018-03-06T13:24:31.343Z,24.40
2018-03-06T13:27:00.620Z,24.20
2018-03-06T13:29:28.599Z,24.20
2018-03-06T13:31:57.083Z,24.00
2018-03-06T13:34:26.027Z,24.10
2018-03-06T13:36:54.340Z,24.10
2018-03-06T13:39:22.469Z,24.20
2018-03-06T13:41:50.775Z,24.30
2018-03-06T13:44:19.541Z,24.30
2018-03-06T13:46:48.059Z,24.30
2018-03-06T13:49:21.258Z,24.20
2018-03-06T13:51:50.349Z,24.20
2018-03-06T13:54:19.450Z,24.20
2018-03-06T13:56:48.541Z,24.30
2018-03-06T13:59:17.428Z,24.40
2018-03-06T14:01:46.349Z,24.30
2018-03-06T14:04:14.392Z,24.30
2018-03-06T14:06:43.473Z,24.10
2018-03-06T14:09:11.463Z,24.00
2018-03-06T14:11:39.542Z,24.00
2018-03-06T14:14:08.041Z,24.00
2018-03-06T14:16:36.527Z,24.10
2018-03-06T14:19:04.611Z,24.10
2018-03-06T14:21:32.814Z,24.10
2018-03-06T14:24:01.207Z,24.10
2018-03-06T14:26:29.661Z,24.20
2018-03-06T14:28:57.631Z,24.10
2018-03-06T14:31:26.420Z,24.10
2018-03-06T14:33:54.683Z,24.10
2018-03-06T14:36:22.763Z,24.10
2018-03-06T14:38:50.993Z,24.10
2018-03-06T14:41:19.721Z,24.20
2018-03-06T14:43:49.059Z,24.20
2018-03-06T14:46:17.770Z,24.20
2018-03-06T14:48:45.738Z,24.00
2018-03-06T14:51:22.997Z,24.00
2018-03-06T14:53:51.123Z,24.00
2018-03-06T14:56:22.201Z,24.00
2018-03-06T14:58:57.416Z,24.10
2018-03-06T15:01:25.379Z,24.10
2018-03-06T15:03:54.267Z,24.10
2018-03-06T15:06:23.170Z,24.20
2018-03-06T15:09:08.566Z,24.10
2018-03-06T15:11:50.209Z,24.20
2018-03-06T15:14:18.288Z,24.10
2018-03-06T15:16:52.517Z,24.00
2018-03-06T15:19:21.592Z,23.80
2018-03-06T15:21:49.837Z,23.80
2018-03-06T15:24:17.950Z,23.80
2018-03-06T15:26:46.813Z,23.70
2018-03-06T15:29:16.235Z,23.70
2018-03-06T15:31:44.407Z,23.80
2018-03-06T15:34:13.562Z,23.80
2018-03-06T15:36:41.658Z,23.70
2018-03-06T15:39:11.190Z,23.70
2018-03-06T15:41:39.247Z,23.70
2018-03-06T15:44:07.485Z,23.70
2018-03-06T15:46:35.714Z,23.70
2018-03-06T15:49:04.157Z,23.70
2018-03-06T15:51:32.260Z,23.70
2018-03-06T15:54:00.516Z,23.60
2018-03-06T15:56:28.912Z,23.70
2018-03-06T15:58:57.071Z,23.60
2018-03-06T16:01:24.848Z,23.60
2018-03-06T16:03:52.797Z,23.60
2018-03-06T16:06:21.061Z,23.60
2018-03-06T16:08:53.862Z,23.60
2018-03-06T16:11:22.613Z,23.60
2018-03-06T16:16:24.133Z,23.60
2018-03-06T16:18:52.383Z,23.50
2018-03-06T16:21:20.690Z,23.50
2018-03-06T16:23:49.219Z,23.50
2018-03-06T16:26:17.501Z,23.50
2018-03-06T16:28:45.377Z,23.50
2018-03-06T16:31:14.261Z,23.50
2018-03-06T16:33:42.951Z,23.50
